createdAt,value
2024-02-29T00:01:15.852Z,33.70
2024-02-29T00:04:17.936Z,45.83
2024-02-29T00:07:19.748Z,32.22
2024-02-29T00:10:22.115Z,35.65
2024-02-29T00:13:24.419Z,39.58
2024-02-29T00:16:26.217Z,36.97
2024-02-29T00:19:29.080Z,34.93
2024-02-29T00:22:30.927Z,38.47
2024-02-29T00:25:32.716Z,34.17
2024-02-29T00:28:34.546Z,35.85
2024-02-29T00:31:36.479Z,40.17
2024-02-29T00:34:38.266Z,38.97
2024-02-29T00:37:40.124Z,40.38
2024-02-29T00:40:41.905Z,40.40
2024-02-29T00:43:43.747Z,40.80
2024-02-29T00:46:45.580Z,36.73
2024-02-29T00:49:47.360Z,39.63
2024-02-29T00:52:49.083Z,40.67
2024-02-29T00:55:51.120Z,38.13
2024-02-29T00:58:52.904Z,37.88
2024-02-29T01:01:56.648Z,42.73
2024-02-29T01:04:58.788Z,48.87
2024-02-29T01:08:00.567Z,45.67
2024-02-29T01:11:04.792Z,38.05
2024-02-29T01:14:06.729Z,35.83
2024-02-29T01:17:08.485Z,47.07
2024-02-29T01:20:10.861Z,37.87
2024-02-29T01:23:12.596Z,36.83
2024-02-29T01:26:14.676Z,33.55
2024-02-29T01:29:16.483Z,37.22
2024-02-29T01:32:22.792Z,37.13
2024-02-29T01:35:29.000Z,36.60
2024-02-29T01:38:33.133Z,34.67
2024-02-29T01:41:34.897Z,39.80
2024-02-29T01:44:48.295Z,36.50
2024-02-29T01:47:50.069Z,35.87
2024-02-29T01:50:52.099Z,37.97
2024-02-29T01:53:53.885Z,33.90
2024-02-29T01:56:56.733Z,36.08
2024-02-29T01:59:58.889Z,32.70
2024-02-29T02:03:00.680Z,32.47
2024-02-29T02:06:02.492Z,32.47
2024-02-29T02:09:04.985Z,38.00
2024-02-29T02:12:07.217Z,30.13
2024-02-29T02:15:09.562Z,30.73
2024-02-29T02:18:11.377Z,30.40
2024-02-29T02:21:13.178Z,28.87
2024-02-29T02:24:15.014Z,35.35
2024-02-29T02:27:16.825Z,30.77
2024-02-29T02:30:18.584Z,30.92
2024-02-29T02:33:24.205Z,29.37
2024-02-29T02:36:26.021Z,31.40
2024-02-29T02:39:27.912Z,28.45
2024-02-29T02:42:29.714Z,32.15
2024-02-29T02:45:31.868Z,36.95
2024-02-29T02:48:33.686Z,35.60
2024-02-29T02:51:35.453Z,35.20
2024-02-29T02:54:37.845Z,34.33
2024-02-29T02:57:39.680Z,34.40
2024-02-29T03:00:41.497Z,34.05
2024-02-29T03:03:43.309Z,35.87
2024-02-29T03:06:45.104Z,38.13
2024-02-29T03:09:47.501Z,34.50
2024-02-29T03:12:50.326Z,39.75
2024-02-29T03:15:52.144Z,38.38
2024-02-29T03:18:54.147Z,39.80
2024-02-29T03:21:55.952Z,41.17
2024-02-29T03:24:58.369Z,40.47
2024-02-29T03:28:00.193Z,35.55
2024-02-29T03:31:02.107Z,37.90
2024-02-29T03:34:04.214Z,37.07
2024-02-29T03:37:06.213Z,33.40
2024-02-29T03:40:08.945Z,37.00
2024-02-29T03:43:11.953Z,41.15
2024-02-29T03:46:13.844Z,38.08
2024-02-29T03:49:15.715Z,37.40
2024-02-29T03:52:17.641Z,36.90
2024-02-29T03:55:19.462Z,35.60
2024-02-29T03:58:21.382Z,35.70
2024-02-29T04:01:23.489Z,43.85
2024-02-29T04:04:25.368Z,40.13
2024-02-29T04:07:27.108Z,41.40
2024-02-29T04:10:29.080Z,35.78
2024-02-29T04:13:31.855Z,34.97
2024-02-29T04:16:37.876Z,37.88
2024-02-29T04:19:39.660Z,34.13
2024-02-29T04:22:41.604Z,43.17
2024-02-29T04:25:46.451Z,36.40
2024-02-29T04:28:49.486Z,37.47
2024-02-29T04:31:51.256Z,38.63
2024-02-29T04:34:53.949Z,35.73
2024-02-29T04:37:55.732Z,40.40
2024-02-29T04:40:57.493Z,35.17
2024-02-29T04:43:59.241Z,41.88
2024-02-29T04:47:01.094Z,39.90
2024-02-29T04:50:04.413Z,37.30
2024-02-29T04:53:06.302Z,34.50
2024-02-29T04:56:08.144Z,39.17
2024-02-29T04:59:11.258Z,35.33
2024-02-29T05:02:13.176Z,36.80
2024-02-29T05:05:15.446Z,42.50
2024-02-29T05:08:17.239Z,36.00
2024-02-29T05:11:19.110Z,37.65
2024-02-29T05:14:21.261Z,34.35
2024-02-29T05:17:23.131Z,36.58
2024-02-29T05:20:24.971Z,33.70
2024-02-29T05:23:26.748Z,37.30
2024-02-29T05:26:28.489Z,34.15
2024-02-29T05:29:30.266Z,40.95
2024-02-29T05:32:32.125Z,44.60
2024-02-29T05:35:34.430Z,43.60
2024-02-29T05:38:36.189Z,44.27
2024-02-29T05:41:38.168Z,39.85
2024-02-29T05:44:40.639Z,35.95
2024-02-29T05:47:42.650Z,34.33
2024-02-29T05:50:44.475Z,31.93
2024-02-29T05:53:46.362Z,39.77
2024-02-29T05:56:48.187Z,64.85
2024-02-29T05:59:49.955Z,61.53
2024-02-29T06:02:53.108Z,42.95
2024-02-29T06:05:55.225Z,39.00
2024-02-29T06:08:56.988Z,35.10
2024-02-29T06:11:58.757Z,35.95
2024-02-29T06:15:05.240Z,29.90
2024-02-29T06:18:08.481Z,34.05
2024-02-29T06:21:10.329Z,31.97
2024-02-29T06:24:12.127Z,35.23
2024-02-29T06:27:13.883Z,34.42
2024-02-29T06:30:18.012Z,35.28
2024-02-29T06:33:22.683Z,34.30
2024-02-29T06:36:24.769Z,32.00
2024-02-29T06:39:26.628Z,28.40
2024-02-29T06:42:28.430Z,29.80
2024-02-29T06:45:30.223Z,32.35
2024-02-29T06:48:32.317Z,31.65
2024-02-29T06:51:34.806Z,39.30
2024-02-29T06:54:37.152Z,30.17
2024-02-29T06:57:39.135Z,40.90
2024-02-29T07:00:41.830Z,35.78
2024-02-29T07:03:43.710Z,29.75
2024-02-29T07:06:45.581Z,33.87
2024-02-29T07:09:47.893Z,31.20
2024-02-29T07:12:50.482Z,31.95
2024-02-29T07:15:52.656Z,34.08
2024-02-29T07:18:54.534Z,26.75
2024-02-29T07:21:56.375Z,31.80
2024-02-29T07:24:58.380Z,36.90
2024-02-29T07:28:00.305Z,27.95
2024-02-29T07:31:03.023Z,27.27
2024-02-29T07:34:05.113Z,29.30
2024-02-29T07:37:07.295Z,31.10
2024-02-29T07:40:15.227Z,36.87
2024-02-29T07:43:23.441Z,28.88
2024-02-29T07:46:25.521Z,32.47
2024-02-29T07:49:27.961Z,35.03
2024-02-29T07:52:29.835Z,31.50
2024-02-29T07:55:34.579Z,30.67
2024-02-29T07:58:36.399Z,30.00
2024-02-29T08:01:44.092Z,25.95
2024-02-29T08:04:48.989Z,34.50
2024-02-29T08:07:50.818Z,33.37
2024-02-29T08:10:54.744Z,31.40
2024-02-29T08:13:57.306Z,28.65
2024-02-29T08:16:59.731Z,28.17
2024-02-29T08:20:03.815Z,32.78
2024-02-29T08:23:05.723Z,28.60
2024-02-29T08:26:09.073Z,30.47
2024-02-29T08:29:14.668Z,31.88
2024-02-29T08:32:16.779Z,29.90
2024-02-29T08:35:19.871Z,32.47
2024-02-29T08:38:21.920Z,30.93
2024-02-29T08:41:23.724Z,35.93
2024-02-29T08:44:25.454Z,26.83
2024-02-29T08:47:27.259Z,30.48
2024-02-29T08:50:29.084Z,25.80
2024-02-29T08:53:30.858Z,29.33
2024-02-29T08:56:32.653Z,29.77
2024-02-29T08:59:34.843Z,29.85
2024-02-29T09:02:36.731Z,26.73
2024-02-29T09:05:38.503Z,26.58
2024-02-29T09:08:41.072Z,25.30
2024-02-29T09:11:42.884Z,21.90
2024-02-29T09:14:46.224Z,20.27
2024-02-29T09:17:53.822Z,22.02
2024-02-29T09:20:58.449Z,22.65
2024-02-29T09:24:03.762Z,20.60
2024-02-29T09:27:06.029Z,21.13
2024-02-29T09:30:08.085Z,21.00
2024-02-29T09:33:09.843Z,19.15
2024-02-29T09:36:12.453Z,22.77
2024-02-29T09:39:14.360Z,20.00
2024-02-29T09:42:17.213Z,16.93
2024-02-29T09:45:25.419Z,20.25
2024-02-29T09:48:28.750Z,18.25
2024-02-29T09:51:31.653Z,22.95
2024-02-29T09:54:35.577Z,17.57
2024-02-29T09:57:37.783Z,18.70
2024-02-29T10:00:39.680Z,23.02
2024-02-29T10:03:43.487Z,20.45
2024-02-29T10:06:45.968Z,20.23
2024-02-29T10:09:49.406Z,27.03
2024-02-29T10:12:58.235Z,24.33
2024-02-29T10:16:00.215Z,22.88
2024-02-29T10:19:03.768Z,18.55
2024-02-29T10:22:05.671Z,23.25
2024-02-29T10:25:16.593Z,24.40
2024-02-29T10:28:20.478Z,22.60
2024-02-29T10:31:22.298Z,22.52
2024-02-29T10:34:24.618Z,24.23
2024-02-29T10:37:26.494Z,22.42
2024-02-29T10:40:28.391Z,19.40
2024-02-29T10:43:34.802Z,19.73
2024-02-29T10:46:42.952Z,22.08
2024-02-29T10:49:53.557Z,18.08
2024-02-29T10:53:22.469Z,27.42
2024-02-29T10:56:28.692Z,17.30
2024-02-29T10:59:31.739Z,19.60
2024-02-29T11:02:34.003Z,17.40
2024-02-29T11:05:38.158Z,20.90
2024-02-29T11:08:41.101Z,19.20
2024-02-29T11:11:47.985Z,22.10
2024-02-29T11:14:50.121Z,21.03
2024-02-29T11:17:51.933Z,19.58
2024-02-29T11:21:06.844Z,19.38
2024-02-29T11:24:10.897Z,20.05
2024-02-29T11:27:13.484Z,24.10
2024-02-29T11:30:19.980Z,21.83
2024-02-29T11:33:21.875Z,16.40
2024-02-29T11:36:24.813Z,20.73
2024-02-29T11:39:26.613Z,19.98
2024-02-29T11:42:28.515Z,18.67
2024-02-29T11:45:30.458Z,20.20
2024-02-29T11:48:32.249Z,19.02
2024-02-29T11:51:34.073Z,23.60
2024-02-29T11:54:36.000Z,19.13
2024-02-29T11:57:37.827Z,21.87
2024-02-29T12:00:39.778Z,19.67
2024-02-29T12:09:09.724Z,20.27
2024-02-29T12:12:18.929Z,31.27
2024-02-29T12:15:45.053Z,22.13
2024-02-29T12:18:53.883Z,22.93
2024-02-29T12:21:56.059Z,22.75
2024-02-29T12:24:58.667Z,21.25
2024-02-29T12:28:00.826Z,20.15
2024-02-29T12:31:02.670Z,23.50
2024-02-29T12:34:04.688Z,20.97
2024-02-29T12:37:20.395Z,19.40
2024-02-29T12:40:22.383Z,21.38
2024-02-29T12:43:24.258Z,20.83
2024-02-29T12:46:27.637Z,19.73
2024-02-29T12:49:29.646Z,28.47
2024-02-29T12:52:31.709Z,20.65
2024-02-29T12:55:33.654Z,23.55
2024-02-29T12:58:35.599Z,21.70
2024-02-29T13:01:38.989Z,19.27
2024-02-29T13:04:41.467Z,18.83
2024-02-29T13:07:43.886Z,24.30
2024-02-29T13:10:45.646Z,17.55
2024-02-29T13:13:47.679Z,22.48
2024-02-29T13:16:49.824Z,25.73
2024-02-29T13:19:51.543Z,21.33
2024-02-29T13:22:53.285Z,17.50
2024-02-29T13:25:55.508Z,16.50
2024-02-29T13:28:57.469Z,18.20
2024-02-29T13:32:01.207Z,20.03
2024-02-29T13:35:05.284Z,17.10
2024-02-29T13:38:07.147Z,17.98
2024-02-29T13:41:09.126Z,16.48
2024-02-29T13:44:10.971Z,16.10
2024-02-29T13:47:16.429Z,21.13
2024-02-29T13:50:20.540Z,23.27
2024-02-29T13:53:22.451Z,24.02
2024-02-29T13:56:26.743Z,19.90
2024-02-29T13:59:31.622Z,19.50
2024-02-29T14:02:34.171Z,19.70
2024-02-29T14:05:36.257Z,15.17
2024-02-29T14:08:38.086Z,19.67
2024-02-29T14:11:40.727Z,15.13
2024-02-29T14:14:42.768Z,21.92
2024-02-29T14:17:44.632Z,18.27
2024-02-29T14:20:46.412Z,18.40
2024-02-29T14:23:48.190Z,16.15
2024-02-29T14:26:52.668Z,18.30
2024-02-29T14:29:54.522Z,16.30
2024-02-29T14:32:58.838Z,17.50
2024-02-29T14:36:01.016Z,14.57
2024-02-29T14:39:03.396Z,24.63
2024-02-29T14:42:24.195Z,22.33
2024-02-29T14:45:26.390Z,19.45
2024-02-29T14:48:28.307Z,16.00
2024-02-29T14:51:30.256Z,18.50
2024-02-29T14:54:32.332Z,19.00
2024-02-29T14:57:34.788Z,17.92
2024-02-29T15:00:36.574Z,20.27
2024-02-29T15:03:38.490Z,19.70
2024-02-29T15:06:40.994Z,17.50
2024-02-29T15:09:42.991Z,18.67
2024-02-29T15:12:51.810Z,21.63
2024-02-29T15:16:20.905Z,17.65
2024-02-29T15:19:27.030Z,18.37
2024-02-29T15:22:29.192Z,17.67
2024-02-29T15:25:30.998Z,17.92
2024-02-29T15:28:33.632Z,14.35
2024-02-29T15:31:37.110Z,19.80
2024-02-29T15:34:38.905Z,21.60
2024-02-29T15:37:40.703Z,17.70
2024-02-29T15:40:44.359Z,24.58
2024-02-29T15:43:46.914Z,37.05
2024-02-29T15:46:51.364Z,46.65
2024-02-29T15:49:53.242Z,32.30
2024-02-29T15:52:56.265Z,32.90
2024-02-29T15:56:00.183Z,28.42
2024-02-29T15:59:03.154Z,31.38
2024-02-29T16:02:04.963Z,20.55
2024-02-29T16:05:07.200Z,19.50
2024-02-29T16:08:09.090Z,26.80
2024-02-29T16:11:11.636Z,18.77
2024-02-29T16:14:13.865Z,19.42
2024-02-29T16:17:15.657Z,28.45
2024-02-29T16:20:17.685Z,24.80
2024-02-29T16:23:20.249Z,25.33
2024-02-29T16:26:22.316Z,28.40
2024-02-29T16:29:24.073Z,26.30
2024-02-29T16:32:26.193Z,52.58
2024-02-29T16:35:28.176Z,72.50
2024-02-29T16:38:30.233Z,41.37
2024-02-29T16:41:32.359Z,32.15
2024-02-29T16:44:34.325Z,25.23
2024-02-29T16:47:36.256Z,25.67
2024-02-29T16:51:05.965Z,23.47
2024-02-29T16:54:07.805Z,24.00
2024-02-29T16:57:11.958Z,23.30
2024-02-29T17:00:19.231Z,27.25
2024-02-29T17:03:21.635Z,30.75
2024-02-29T17:06:23.884Z,25.90
2024-02-29T17:09:27.731Z,22.40
2024-02-29T17:12:31.900Z,34.30
2024-02-29T17:15:36.573Z,27.48
2024-02-29T17:18:39.921Z,31.20
2024-02-29T17:21:43.009Z,25.97
2024-02-29T17:24:46.682Z,23.33
2024-02-29T17:27:48.616Z,26.25
2024-02-29T17:30:50.644Z,35.28
2024-02-29T17:33:53.129Z,32.58
2024-02-29T17:36:54.939Z,32.97
2024-02-29T17:39:57.159Z,29.83
2024-02-29T17:42:59.334Z,27.95
2024-02-29T17:46:01.430Z,37.38
2024-02-29T17:49:03.731Z,45.47
2024-02-29T17:52:07.558Z,41.40
2024-02-29T17:55:09.690Z,34.40
2024-02-29T17:58:12.012Z,31.40
2024-02-29T18:01:13.930Z,25.73
2024-02-29T18:04:15.753Z,23.08
2024-02-29T18:07:17.682Z,22.80
2024-02-29T18:10:19.811Z,23.50
2024-02-29T18:13:22.014Z,26.10
2024-02-29T18:16:24.182Z,24.02
2024-02-29T18:19:27.227Z,41.00
2024-02-29T18:22:29.515Z,68.00
2024-02-29T18:25:31.460Z,55.93
2024-02-29T18:28:34.824Z,54.35
2024-02-29T18:31:36.904Z,48.33
2024-02-29T18:34:39.139Z,44.40
2024-02-29T18:37:41.496Z,35.67
2024-02-29T18:40:44.809Z,20.17
2024-02-29T18:43:47.377Z,20.65
2024-02-29T18:46:49.290Z,24.00
2024-02-29T18:49:51.317Z,54.33
2024-02-29T18:52:53.461Z,59.47
2024-02-29T18:55:55.595Z,31.73
2024-02-29T18:58:57.967Z,27.83
2024-02-29T19:02:01.575Z,24.02
2024-02-29T19:05:04.304Z,25.08
2024-02-29T19:08:07.026Z,26.33
2024-02-29T19:11:09.099Z,31.87
2024-02-29T19:14:12.534Z,29.58
2024-02-29T19:17:14.374Z,32.63
2024-02-29T19:20:16.633Z,27.30
2024-02-29T19:23:18.534Z,25.80
2024-02-29T19:26:21.563Z,27.23
2024-02-29T19:29:23.339Z,31.00
2024-02-29T19:32:27.160Z,32.63
2024-02-29T19:35:29.317Z,26.70
2024-02-29T19:38:31.134Z,28.30
2024-02-29T19:41:33.310Z,27.80
2024-02-29T19:44:35.361Z,26.00
2024-02-29T19:47:41.670Z,24.48
2024-02-29T19:50:43.449Z,26.80
2024-02-29T19:53:45.533Z,22.97
2024-02-29T19:56:47.940Z,27.97
2024-02-29T19:59:49.928Z,26.60
2024-02-29T20:02:51.775Z,29.00
2024-02-29T20:05:53.887Z,27.73
2024-02-29T20:08:56.094Z,32.07
2024-02-29T20:11:58.185Z,24.60
2024-02-29T20:15:01.505Z,26.77
2024-02-29T20:18:03.755Z,28.60
2024-02-29T20:21:05.981Z,37.33
2024-02-29T20:24:08.798Z,32.27
2024-02-29T20:27:11.168Z,30.43
2024-02-29T20:30:15.787Z,33.35
2024-02-29T20:33:17.681Z,29.98
2024-02-29T20:36:19.479Z,31.35
2024-02-29T20:39:21.299Z,30.30
2024-02-29T20:42:23.097Z,29.03
2024-02-29T20:45:25.892Z,26.48
2024-02-29T20:48:27.663Z,29.25
2024-02-29T20:51:29.531Z,26.10
2024-02-29T20:54:31.846Z,24.17
2024-02-29T20:57:33.807Z,26.97
2024-02-29T21:00:36.253Z,27.40
2024-02-29T21:03:38.037Z,24.60
2024-02-29T21:06:39.861Z,29.20
2024-02-29T21:09:41.752Z,28.00
2024-02-29T21:12:43.837Z,30.23
2024-02-29T21:15:45.684Z,27.50
2024-02-29T21:18:47.451Z,28.67
2024-02-29T21:21:49.312Z,29.05
2024-02-29T21:24:51.134Z,25.37
2024-02-29T21:27:52.986Z,29.20
2024-02-29T21:30:56.251Z,27.60
2024-02-29T21:33:58.450Z,31.30
2024-02-29T21:37:00.556Z,28.95
2024-02-29T21:40:02.793Z,27.63
2024-02-29T21:43:05.013Z,30.90
2024-02-29T21:46:08.689Z,26.17
2024-02-29T21:49:10.500Z,26.85
2024-02-29T21:52:13.001Z,28.90
2024-02-29T21:55:16.483Z,28.40
2024-02-29T21:58:18.931Z,30.60
2024-02-29T22:01:20.860Z,30.48
2024-02-29T22:04:23.180Z,31.30
2024-02-29T22:07:25.128Z,27.83
2024-02-29T22:10:26.998Z,31.60
2024-02-29T22:13:29.002Z,30.90
2024-02-29T22:16:30.886Z,32.05
2024-02-29T22:19:33.326Z,31.15
2024-02-29T22:22:35.802Z,32.85
2024-02-29T22:25:37.626Z,32.27
2024-02-29T22:28:39.370Z,32.23
2024-02-29T22:31:42.279Z,35.38
2024-02-29T22:34:44.185Z,37.38
2024-02-29T22:37:46.048Z,40.03
2024-02-29T22:40:47.823Z,38.20
2024-02-29T22:43:49.859Z,37.87
2024-02-29T22:46:52.559Z,40.05
2024-02-29T22:49:54.375Z,33.78
2024-02-29T22:52:57.928Z,31.95
2024-02-29T22:55:59.953Z,34.63
2024-02-29T22:59:01.826Z,35.57
2024-02-29T23:02:05.169Z,36.65
2024-02-29T23:05:07.337Z,34.35
2024-02-29T23:08:11.363Z,33.88
2024-02-29T23:11:13.492Z,40.20
2024-02-29T23:14:15.441Z,33.77
2024-02-29T23:17:17.525Z,33.75
2024-02-29T23:20:19.470Z,34.45
2024-02-29T23:23:21.268Z,31.25
2024-02-29T23:26:23.032Z,34.43
2024-02-29T23:29:24.887Z,28.33
2024-02-29T23:32:26.623Z,33.35
2024-02-29T23:35:28.381Z,32.28
2024-02-29T23:38:30.110Z,32.28
2024-02-29T23:41:31.930Z,31.10
2024-02-29T23:44:34.207Z,31.87
2024-02-29T23:47:36.010Z,33.92
2024-02-29T23:50:38.305Z,29.42
2024-02-29T23:53:40.109Z,30.42
2024-02-29T23:56:41.894Z,26.70
2024-02-29T23:59:43.656Z,31.00
